Time;durP1;ratioP1;P1;durP2;ratioP2;P2;SDS_P1;SDS_P2;PMS_P1;PMS_P2;Temp;Humidity;BMP_temperature;BMP_pressure;BME280_temperature;BME280_humidity;BME280_pressure;Samples;Min_cycle;Max_cycle;Signal;HPM_P1;HPM_P2
2023/04/01 00:00:47;;;;;;;5.20;1.20;;;10.30;99.90;;;;;;5012729;28;20152;-70
2023/04/01 00:03:13;;;;;;;5.68;1.65;;;10.20;99.90;;;;;;4991272;28;20137;-72
2023/04/01 00:05:39;;;;;;;5.57;1.58;;;10.20;99.90;;;;;;5000021;28;20067;-71
2023/04/01 00:08:05;;;;;;;7.63;1.65;;;10.30;99.90;;;;;;4999397;28;20040;-72
2023/04/01 00:10:30;;;;;;;4.88;1.15;;;10.20;99.90;;;;;;5000172;28;20045;-71
2023/04/01 00:12:56;;;;;;;7.60;1.60;;;10.20;99.90;;;;;;5016352;28;20055;-72
2023/04/01 00:15:22;;;;;;;8.38;2.00;;;10.20;99.90;;;;;;5032859;28;20047;-72
2023/04/01 00:17:48;;;;;;;5.53;1.52;;;10.10;99.90;;;;;;5032800;28;20044;-72
2023/04/01 00:20:14;;;;;;;5.40;1.67;;;10.10;99.90;;;;;;5010439;28;20052;-72
2023/04/01 00:22:40;;;;;;;7.70;1.65;;;10.20;99.90;;;;;;5031851;28;20041;-72
2023/04/01 00:25:06;;;;;;;7.45;1.90;;;10.10;99.90;;;;;;4999697;28;20052;-71
2023/04/01 00:27:32;;;;;;;4.20;1.27;;;10.10;99.90;;;;;;5016003;28;20045;-72
2023/04/01 00:29:58;;;;;;;6.03;1.85;;;10.10;99.90;;;;;;5032326;28;20044;-72
2023/04/01 00:32:25;;;;;;;6.85;1.73;;;10.10;99.90;;;;;;5001997;28;20056;-72
2023/04/01 00:34:52;;;;;;;6.32;1.75;;;10.10;99.90;;;;;;5015837;28;20094;-72
2023/04/01 00:37:18;;;;;;;7.97;1.63;;;10.10;99.90;;;;;;5016030;28;20076;-72
2023/04/01 00:39:44;;;;;;;6.72;1.30;;;10.10;99.90;;;;;;4998114;28;20382;-69
2023/04/01 00:42:10;;;;;;;4.82;1.45;;;10.10;99.90;;;;;;4999038;28;20087;-69
2023/04/01 00:44:37;;;;;;;8.55;1.35;;;10.20;99.90;;;;;;5032206;28;20323;-70
2023/04/01 00:47:03;;;;;;;8.27;1.65;;;10.20;99.90;;;;;;5009665;28;20436;-70
2023/04/01 00:49:40;;;;;;;5.88;1.67;;;10.10;99.90;;;;;;4988971;28;20136;-70
2023/04/01 00:52:06;;;;;;;3.45;1.02;;;10.10;99.90;;;;;;5030834;28;20049;-70
2023/04/01 00:54:33;;;;;;;5.13;1.45;;;10.10;99.90;;;;;;5015572;28;20041;-70
2023/04/01 00:57:14;;;;;;;5.13;1.30;;;10.10;99.90;;;;;;5030975;28;20116;-69
2023/04/01 00:59:45;;;;;;;5.22;1.42;;;10.10;99.90;;;;;;5033786;28;20441;-70
2023/04/01 01:02:11;;;;;;;3.13;1.00;;;10.10;99.90;;;;;;5014750;28;20545;-70
2023/04/01 01:04:37;;;;;;;4.32;1.30;;;10.10;99.90;;;;;;5019100;28;20182;-70
2023/04/01 01:07:31;;;;;;;6.03;1.25;;;10.10;99.90;;;;;;4992126;28;20464;-70
2023/04/01 01:10:09;;;;;;;4.53;1.60;;;10.10;99.90;;;;;;5010204;28;20132;-70
2023/04/01 01:12:45;;;;;;;7.05;1.27;;;10.10;99.90;;;;;;5012892;28;20136;-70
2023/04/01 01:15:17;;;;;;;5.05;1.17;;;10.20;99.90;;;;;;5007498;28;20041;-70
2023/04/01 01:18:07;;;;;;;3.95;1.00;;;10.20;99.90;;;;;;5050044;28;20124;-70
2023/04/01 01:20:50;;;;;;;5.40;1.55;;;10.10;99.90;;;;;;5049484;28;20048;-70
2023/04/01 01:23:40;;;;;;;6.90;1.10;;;10.20;99.90;;;;;;5050351;28;20054;-70
2023/04/01 01:26:15;;;;;;;4.20;1.15;;;10.10;99.90;;;;;;5002042;28;20140;-70
2023/04/01 01:29:18;;;;;;;5.80;1.40;;;10.10;99.90;;;;;;5048061;28;20049;-70
2023/04/01 01:32:06;;;;;;;7.32;0.95;;;10.10;99.90;;;;;;5025308;28;20698;-70
2023/04/01 01:34:47;;;;;;;4.53;1.10;;;10.10;99.90;;;;;;5010661;28;20116;-70
2023/04/01 01:37:17;;;;;;;5.82;1.10;;;10.00;99.90;;;;;;5049074;28;20037;-71
2023/04/01 01:39:44;;;;;;;3.92;0.98;;;10.00;99.90;;;;;;5029375;28;20123;-70
2023/04/01 01:42:11;;;;;;;4.60;1.00;;;10.00;99.90;;;;;;4999098;28;20096;-70
2023/04/01 01:44:37;;;;;;;5.32;1.13;;;10.00;99.90;;;;;;4996768;28;20041;-70
2023/04/01 01:47:03;;;;;;;3.60;1.15;;;10.00;99.90;;;;;;5016156;28;20052;-70
2023/04/01 01:49:30;;;;;;;4.82;1.20;;;10.00;99.90;;;;;;5032350;28;20059;-70
2023/04/01 01:51:56;;;;;;;4.75;0.93;;;10.00;99.90;;;;;;4998759;28;20068;-70
2023/04/01 01:54:23;;;;;;;3.80;1.00;;;10.00;99.90;;;;;;4999719;28;20052;-70
2023/04/01 01:56:51;;;;;;;5.38;1.40;;;9.90;99.90;;;;;;5015804;28;20041;-70
2023/04/01 01:59:18;;;;;;;3.70;1.20;;;10.00;99.90;;;;;;4998976;28;20037;-70
2023/04/01 02:01:46;;;;;;;3.03;0.93;;;10.00;99.90;;;;;;4995311;28;20045;-70
2023/04/01 02:04:13;;;;;;;4.90;1.17;;;9.90;99.90;;;;;;5015629;28;20055;-71
2023/04/01 02:06:41;;;;;;;4.90;1.20;;;9.90;99.90;;;;;;5015332;28;20083;-70
2023/04/01 02:09:10;;;;;;;5.53;1.27;;;9.90;99.90;;;;;;5016193;28;20045;-70
2023/04/01 02:11:53;;;;;;;2.03;0.98;;;9.90;99.90;;;;;;4998926;28;20067;-70
2023/04/01 02:14:22;;;;;;;3.22;1.05;;;9.90;99.90;;;;;;5025772;28;20044;-70
2023/04/01 02:16:58;;;;;;;3.97;1.27;;;9.90;99.90;;;;;;5031121;28;20087;-70
2023/04/01 02:19:32;;;;;;;5.82;1.08;;;9.90;99.90;;;;;;5015720;28;20425;-70
2023/04/01 02:22:00;;;;;;;5.35;1.30;;;9.90;99.90;;;;;;5015558;28;20056;-70
2023/04/01 02:24:27;;;;;;;6.13;1.77;;;9.90;99.90;;;;;;5015265;28;20053;-70
2023/04/01 02:26:52;;;;;;;4.93;1.45;;;9.90;99.90;;;;;;4994729;28;20049;-70
2023/04/01 02:29:21;;;;;;;3.38;1.00;;;9.90;99.90;;;;;;5005580;28;20045;-70
2023/04/01 02:31:46;;;;;;;7.57;1.60;;;9.90;99.90;;;;;;5000559;28;20428;-70
2023/04/01 02:34:13;;;;;;;4.95;1.20;;;9.90;99.90;;;;;;4993693;28;20041;-70
2023/04/01 02:36:39;;;;;;;7.53;1.27;;;9.90;99.90;;;;;;5015034;28;20051;-70
2023/04/01 02:39:05;;;;;;;6.15;1.08;;;9.80;99.90;;;;;;5015070;28;20654;-70
2023/04/01 02:41:31;;;;;;;4.18;1.10;;;9.80;99.90;;;;;;5014528;28;20060;-70
2023/04/01 02:43:58;;;;;;;5.55;1.65;;;9.90;99.90;;;;;;4999096;28;20049;-70
2023/04/01 02:46:24;;;;;;;4.80;1.08;;;9.90;99.90;;;;;;5003840;28;20605;-70
2023/04/01 02:48:50;;;;;;;3.85;1.35;;;9.90;99.90;;;;;;5014662;28;20492;-70
2023/04/01 02:51:16;;;;;;;6.82;1.80;;;9.90;99.90;;;;;;5013339;28;20044;-70
2023/04/01 02:53:42;;;;;;;4.90;1.13;;;9.90;99.90;;;;;;5030652;28;20567;-70
2023/04/01 02:56:08;;;;;;;3.20;1.25;;;10.00;99.90;;;;;;5014698;28;20653;-70
2023/04/01 02:58:34;;;;;;;6.85;1.25;;;9.90;99.90;;;;;;5048316;28;20049;-71
2023/04/01 03:01:00;;;;;;;4.40;1.25;;;9.90;99.90;;;;;;5045176;28;20042;-70
2023/04/01 03:03:25;;;;;;;4.47;1.30;;;9.90;99.90;;;;;;5030250;28;20055;-70
2023/04/01 03:05:51;;;;;;;3.78;1.38;;;9.80;99.90;;;;;;5014450;28;20730;-70
2023/04/01 03:08:17;;;;;;;4.25;1.48;;;9.80;99.90;;;;;;4997808;28;20106;-70
2023/04/01 03:10:43;;;;;;;3.13;1.13;;;9.80;99.90;;;;;;5030395;28;20067;-71
2023/04/01 03:13:08;;;;;;;3.67;1.20;;;9.90;99.90;;;;;;5048984;28;20053;-71
2023/04/01 03:15:34;;;;;;;4.78;1.40;;;9.90;99.90;;;;;;4997027;28;20120;-70
2023/04/01 03:18:00;;;;;;;3.13;1.10;;;9.90;99.90;;;;;;5014013;28;20124;-70
2023/04/01 03:20:26;;;;;;;5.28;1.20;;;9.90;99.90;;;;;;5014670;28;20087;-70
2023/04/01 03:22:51;;;;;;;5.30;1.27;;;9.90;99.90;;;;;;5014055;28;20056;-69
2023/04/01 03:25:17;;;;;;;4.20;1.10;;;9.80;99.90;;;;;;4997882;28;20056;-70
2023/04/01 03:27:43;;;;;;;4.80;1.23;;;9.90;99.90;;;;;;5029969;28;20055;-70
2023/04/01 03:30:09;;;;;;;4.93;1.48;;;9.90;99.90;;;;;;5030601;28;20072;-70
2023/04/01 03:32:35;;;;;;;4.20;1.10;;;9.90;99.90;;;;;;5014225;28;20110;-70
2023/04/01 03:35:01;;;;;;;2.92;1.00;;;9.90;99.90;;;;;;4996691;28;20045;-70
2023/04/01 03:37:26;;;;;;;4.90;1.20;;;9.90;99.90;;;;;;5027401;28;20466;-70
2023/04/01 03:39:52;;;;;;;3.92;1.40;;;10.00;99.90;;;;;;4995488;28;20045;-70
2023/04/01 03:42:18;;;;;;;3.97;1.08;;;9.90;99.90;;;;;;5046495;28;20041;-70
2023/04/01 03:44:44;;;;;;;5.68;1.30;;;10.00;99.90;;;;;;5029491;28;20075;-70
2023/04/01 03:47:10;;;;;;;5.10;1.10;;;9.90;99.90;;;;;;5047738;28;20056;-70
2023/04/01 03:49:36;;;;;;;2.25;1.00;;;10.00;99.90;;;;;;5019807;28;20053;-70
2023/04/01 03:52:02;;;;;;;3.78;1.00;;;10.00;99.90;;;;;;5029187;28;20635;-70
2023/04/01 03:54:28;;;;;;;2.20;0.93;;;9.90;99.90;;;;;;4995290;28;20076;-70
2023/04/01 03:56:54;;;;;;;8.18;1.85;;;10.00;99.90;;;;;;5012619;28;20366;-70
2023/04/01 03:59:20;;;;;;;5.18;1.08;;;10.00;99.90;;;;;;5029756;28;20462;-70
2023/04/01 04:01:47;;;;;;;4.32;1.63;;;9.90;99.90;;;;;;4988595;28;20038;-70
2023/04/01 04:04:14;;;;;;;4.13;1.10;;;9.90;99.90;;;;;;4980950;28;20111;-70
2023/04/01 04:06:40;;;;;;;5.28;1.17;;;9.90;99.90;;;;;;4996799;28;20041;-70
2023/04/01 04:09:06;;;;;;;4.63;1.38;;;9.80;99.90;;;;;;5047764;28;20041;-70
2023/04/01 04:11:32;;;;;;;7.13;1.60;;;9.90;99.90;;;;;;5045930;28;20053;-70
2023/04/01 04:13:59;;;;;;;3.10;1.40;;;9.80;99.90;;;;;;5012742;28;20044;-70
2023/04/01 04:16:24;;;;;;;3.00;1.27;;;9.80;99.90;;;;;;5013443;28;20488;-70
2023/04/01 04:18:51;;;;;;;3.58;1.00;;;9.80;99.90;;;;;;5013659;28;20048;-70
2023/04/01 04:21:17;;;;;;;1.80;1.10;;;9.80;99.90;;;;;;5046296;28;20045;-70
2023/04/01 04:23:42;;;;;;;4.15;1.27;;;9.90;99.90;;;;;;5012815;28;20661;-70
2023/04/01 04:26:10;;;;;;;3.50;1.23;;;9.80;99.90;;;;;;5029121;28;20558;-70
2023/04/01 04:28:36;;;;;;;5.90;1.65;;;9.80;99.90;;;;;;5012959;28;20544;-70
2023/04/01 04:31:01;;;;;;;3.15;1.60;;;9.90;99.90;;;;;;5026284;28;20144;-70
2023/04/01 04:33:28;;;;;;;3.20;1.67;;;9.90;99.90;;;;;;5015314;28;20119;-70
2023/04/01 04:35:57;;;;;;;4.68;1.42;;;9.90;99.90;;;;;;5031268;28;20836;-70
2023/04/01 04:38:23;;;;;;;5.57;1.60;;;9.90;99.90;;;;;;5016547;28;20114;-70
2023/04/01 04:40:49;;;;;;;5.80;1.50;;;9.90;99.90;;;;;;4979117;28;20461;-70
2023/04/01 04:43:15;;;;;;;3.00;1.27;;;9.90;99.90;;;;;;5024879;28;20135;-70
2023/04/01 04:45:41;;;;;;;6.25;1.20;;;9.90;99.90;;;;;;5033252;28;20458;-70
2023/04/01 04:48:15;;;;;;;4.72;1.27;;;9.90;99.90;;;;;;5016415;28;20056;-71
2023/04/01 04:50:42;;;;;;;4.32;1.30;;;9.90;99.90;;;;;;4994351;28;20064;-70
2023/04/01 04:53:10;;;;;;;7.00;1.73;;;9.80;99.90;;;;;;5031791;28;20046;-70
2023/04/01 04:55:36;;;;;;;;;;;9.80;99.90;;;;;;5001615;28;20147;-70
2023/04/01 04:58:01;;;;;;;5.03;1.35;;;9.80;99.90;;;;;;5032622;28;19999;-70
2023/04/01 05:00:27;;;;;;;3.30;1.40;;;9.80;99.90;;;;;;5049652;28;20045;-70
2023/04/01 05:02:53;;;;;;;5.20;1.95;;;9.90;99.90;;;;;;5015785;28;20045;-70
2023/04/01 05:05:19;;;;;;;6.20;2.05;;;9.80;99.90;;;;;;5028187;28;20057;-70
2023/04/01 05:07:44;;;;;;;4.47;1.60;;;9.90;99.90;;;;;;5016432;28;20128;-70
2023/04/01 05:10:10;;;;;;;5.75;1.10;;;9.90;99.90;;;;;;5020373;28;20079;-70
2023/04/01 05:12:38;;;;;;;3.70;1.27;;;9.90;99.90;;;;;;4995354;28;20086;-70
2023/04/01 05:15:08;;;;;;;3.28;1.02;;;9.90;99.90;;;;;;5029121;28;20045;-70
2023/04/01 05:17:33;;;;;;;5.30;1.20;;;9.90;99.90;;;;;;5012582;28;20048;-70
2023/04/01 05:19:59;;;;;;;4.50;1.30;;;9.90;99.90;;;;;;4995977;28;20714;-70
2023/04/01 05:22:25;;;;;;;4.15;1.08;;;9.90;99.90;;;;;;5028350;28;20417;-70
2023/04/01 05:24:51;;;;;;;3.30;1.15;;;9.90;99.90;;;;;;5013282;28;20458;-70
2023/04/01 05:27:18;;;;;;;2.65;1.00;;;9.90;99.90;;;;;;5028421;28;20052;-69
2023/04/01 05:29:44;;;;;;;2.95;0.98;;;9.90;99.90;;;;;;5006830;28;20148;-70
2023/04/01 05:32:10;;;;;;;4.90;1.33;;;9.90;99.90;;;;;;4989500;28;20153;-69
2023/04/01 05:34:36;;;;;;;4.13;1.13;;;9.90;99.90;;;;;;5029094;28;20055;-69
2023/04/01 05:37:01;;;;;;;5.80;1.40;;;9.90;99.90;;;;;;5026454;28;20540;-69
2023/04/01 05:39:27;;;;;;;5.70;1.00;;;9.90;99.90;;;;;;5012685;28;20344;-70
2023/04/01 05:41:53;;;;;;;3.75;1.02;;;9.90;99.90;;;;;;4995242;28;20127;-69
2023/04/01 05:44:19;;;;;;;5.22;1.25;;;9.90;99.90;;;;;;5028630;28;20041;-69
2023/04/01 05:46:44;;;;;;;7.45;1.20;;;9.80;99.90;;;;;;5027776;28;20091;-69
2023/04/01 05:49:10;;;;;;;5.40;1.30;;;9.90;99.90;;;;;;5026501;28;20050;-69
2023/04/01 05:51:36;;;;;;;6.15;1.70;;;9.90;99.90;;;;;;5010743;28;20046;-69
2023/04/01 05:54:01;;;;;;;4.38;1.67;;;9.80;99.90;;;;;;5012463;28;20042;-69
2023/04/01 05:56:27;;;;;;;2.83;1.20;;;9.80;99.90;;;;;;4996462;28;20056;-70
2023/04/01 05:58:53;;;;;;;6.25;1.50;;;9.80;99.90;;;;;;5027713;28;20041;-70
2023/04/01 06:01:19;;;;;;;3.50;1.05;;;9.80;99.90;;;;;;5011893;28;20045;-70
2023/04/01 06:03:45;;;;;;;4.50;1.10;;;9.80;99.90;;;;;;4995699;28;20134;-69
2023/04/01 06:06:15;;;;;;;4.93;1.10;;;9.90;99.90;;;;;;5023861;28;20076;-70
2023/04/01 06:08:41;;;;;;;4.55;1.20;;;9.80;99.90;;;;;;5008819;28;20050;-71
2023/04/01 06:11:10;;;;;;;4.25;1.20;;;9.90;99.90;;;;;;5013359;28;20048;-69
2023/04/01 06:14:02;;;;;;;4.15;1.40;;;9.80;99.90;;;;;;5031961;28;20072;-70
2023/04/01 06:16:46;;;;;;;3.38;1.08;;;9.80;99.90;;;;;;5010437;28;20179;-70
2023/04/01 06:19:15;;;;;;;7.00;1.20;;;9.90;99.90;;;;;;5010893;28;20092;-69
2023/04/01 06:21:59;;;;;;;3.80;1.00;;;9.90;99.90;;;;;;5030149;28;20560;-70
2023/04/01 06:24:40;;;;;;;4.43;1.13;;;9.90;99.90;;;;;;5045079;28;20668;-69
2023/04/01 06:27:18;;;;;;;2.97;1.13;;;9.90;99.90;;;;;;5016613;28;20049;-70
2023/04/01 06:30:10;;;;;;;2.67;1.23;;;9.80;99.90;;;;;;5033853;28;20040;-69
2023/04/01 06:32:42;;;;;;;4.03;1.33;;;9.90;99.90;;;;;;5044144;28;20052;-69
2023/04/01 06:35:11;;;;;;;3.72;1.00;;;10.00;99.90;;;;;;5046514;28;20087;-70
2023/04/01 06:37:42;;;;;;;3.10;0.80;;;10.00;99.90;;;;;;5050909;28;20037;-69
2023/04/01 06:40:23;;;;;;;2.90;1.00;;;9.80;99.90;;;;;;5029086;28;20378;-70
2023/04/01 06:43:06;;;;;;;3.08;0.88;;;9.80;99.90;;;;;;5049408;28;20068;-69
2023/04/01 06:45:35;;;;;;;4.03;1.08;;;9.80;99.90;;;;;;5018631;28;20131;-70
2023/04/01 06:48:20;;;;;;;14.57;1.33;;;9.90;99.90;;;;;;5001496;28;20374;-69
2023/04/01 06:51:13;;;;;;;3.40;0.90;;;9.90;99.90;;;;;;5029558;28;20052;-69
2023/04/01 06:54:16;;;;;;;2.65;1.00;;;9.90;99.90;;;;;;5034550;28;20048;-70
2023/04/01 06:56:42;;;;;;;3.53;1.25;;;9.80;99.90;;;;;;5005894;28;20470;-69
2023/04/01 06:59:19;;;;;;;3.83;0.98;;;9.80;99.90;;;;;;5013452;28;20437;-69
2023/04/01 07:01:47;;;;;;;6.70;1.20;;;9.90;99.90;;;;;;5017147;28;20045;-69
2023/04/01 07:04:29;;;;;;;2.78;0.90;;;9.90;99.90;;;;;;5016995;28;20053;-69
2023/04/01 07:06:58;;;;;;;3.08;0.77;;;10.00;99.90;;;;;;5016914;28;20110;-70
2023/04/01 07:09:31;;;;;;;4.32;1.27;;;10.00;99.90;;;;;;5051101;28;20118;-70
2023/04/01 07:12:02;;;;;;;2.65;1.30;;;10.10;99.90;;;;;;5026882;28;20053;-70
2023/04/01 07:14:36;;;;;;;3.25;0.95;;;10.10;99.90;;;;;;5014889;28;20171;-70
2023/04/01 07:17:11;;;;;;;3.60;1.00;;;10.20;99.90;;;;;;5029002;28;20166;-70
2023/04/01 07:20:00;;;;;;;4.82;1.05;;;10.20;99.90;;;;;;5032890;28;20049;-70
2023/04/01 07:22:29;;;;;;;4.18;1.15;;;10.30;99.90;;;;;;5035579;28;20041;-69
2023/04/01 07:24:57;;;;;;;2.33;0.95;;;10.30;99.90;;;;;;5050061;28;20110;-70
2023/04/01 07:27:23;;;;;;;2.40;1.00;;;10.40;99.90;;;;;;5050352;28;20049;-69
2023/04/01 07:29:49;;;;;;;4.30;1.58;;;10.40;99.90;;;;;;5016310;28;20060;-69
2023/04/01 07:32:30;;;;;;;2.35;0.73;;;10.50;99.90;;;;;;5016565;28;20059;-70
2023/04/01 07:35:03;;;;;;;3.28;0.80;;;10.50;99.90;;;;;;5040510;28;20037;-70
2023/04/01 07:38:13;;;;;;;2.97;0.73;;;10.50;99.90;;;;;;5000637;28;20565;-70
2023/04/01 07:40:57;;;;;;;1.98;0.80;;;10.50;99.90;;;;;;4989802;28;20078;-69
2023/04/01 07:43:35;;;;;;;3.95;0.80;;;10.60;99.90;;;;;;4998153;28;20058;-70
2023/04/01 07:46:13;;;;;;;2.60;0.93;;;10.80;99.90;;;;;;5018197;28;20056;-69
2023/04/01 07:49:08;;;;;;;4.38;0.90;;;10.80;99.90;;;;;;5032690;28;20114;-70
2023/04/01 07:51:40;;;;;;;2.67;0.80;;;10.90;99.90;;;;;;5016512;28;20045;-69
2023/04/01 07:54:46;;;;;;;4.18;0.82;;;10.90;99.90;;;;;;5000044;28;20051;-70
2023/04/01 07:57:29;;;;;;;2.88;0.88;;;11.00;99.90;;;;;;4994992;28;20115;-70
2023/04/01 07:59:59;;;;;;;4.05;0.90;;;11.10;99.90;;;;;;5032400;28;20072;-70
2023/04/01 08:02:42;;;;;;;2.10;0.75;;;11.20;99.90;;;;;;5015568;28;20045;-70
2023/04/01 08:05:28;;;;;;;3.00;0.82;;;11.20;99.90;;;;;;5032663;28;20072;-70
2023/04/01 08:08:31;;;;;;;3.15;0.70;;;11.20;99.90;;;;;;5028482;28;20052;-70
2023/04/01 08:11:10;;;;;;;1.95;0.80;;;11.20;99.90;;;;;;5050172;28;20110;-69
2023/04/01 08:13:44;;;;;;;2.30;0.60;;;11.20;99.90;;;;;;5026840;28;20441;-70
2023/04/01 08:16:16;;;;;;;3.50;0.80;;;11.20;99.90;;;;;;5016977;28;20653;-69
2023/04/01 08:19:05;;;;;;;4.20;0.80;;;11.20;99.90;;;;;;5014947;28;20052;-70
2023/04/01 08:21:35;;;;;;;2.08;0.50;;;11.30;99.90;;;;;;5033837;28;20454;-70
2023/04/01 08:24:23;;;;;;;2.50;0.65;;;11.30;99.90;;;;;;4999567;28;20049;-70
2023/04/01 08:26:51;;;;;;;1.15;0.50;;;11.30;99.90;;;;;;5013409;28;20068;-69
2023/04/01 08:29:20;;;;;;;3.17;0.60;;;11.20;99.90;;;;;;5032766;28;20049;-70
2023/04/01 08:31:54;;;;;;;2.17;0.63;;;11.20;99.90;;;;;;5000455;28;20052;-69
2023/04/01 08:34:26;;;;;;;1.42;0.52;;;11.10;99.90;;;;;;5050166;28;20041;-69
2023/04/01 08:36:55;;;;;;;3.25;0.80;;;11.10;99.90;;;;;;5015975;28;20036;-69
2023/04/01 08:39:35;;;;;;;4.15;0.70;;;11.10;99.90;;;;;;5016271;28;20159;-69
2023/04/01 08:42:14;;;;;;;2.58;0.80;;;11.10;99.90;;;;;;5016462;28;20076;-70
2023/04/01 08:45:00;;;;;;;2.58;0.70;;;11.10;99.90;;;;;;5032043;28;20076;-69
2023/04/01 08:47:35;;;;;;;1.75;0.80;;;11.00;99.90;;;;;;5022705;28;20045;-70
2023/04/01 08:50:00;;;;;;;3.53;0.80;;;11.10;99.90;;;;;;5032092;28;20464;-70
2023/04/01 08:53:03;;;;;;;2.47;0.90;;;11.20;99.90;;;;;;5031674;28;20056;-69
2023/04/01 08:55:29;;;;;;;5.65;1.42;;;11.10;99.90;;;;;;5018209;28;20048;-70
2023/04/01 08:58:11;;;;;;;2.40;0.95;;;11.20;99.90;;;;;;5031773;28;20048;-70
2023/04/01 09:01:09;;;;;;;2.90;0.98;;;11.30;99.90;;;;;;5033747;28;20047;-69
2023/04/01 09:03:41;;;;;;;2.58;0.65;;;11.40;99.90;;;;;;4987585;28;20087;-70
2023/04/01 09:06:24;;;;;;;1.73;0.77;;;11.50;99.90;;;;;;5044082;28;20041;-70
2023/04/01 09:09:11;;;;;;;5.47;1.00;;;11.50;99.90;;;;;;5028770;28;20346;-70
2023/04/01 09:12:00;;;;;;;3.30;1.00;;;11.50;99.90;;;;;;5031060;28;20096;-71
2023/04/01 09:14:44;;;;;;;3.45;1.00;;;11.60;99.90;;;;;;5049363;28;20048;-70
2023/04/01 09:18:09;;;;;;;1.92;0.80;;;11.50;99.90;;;;;;5049356;28;20044;-70
2023/04/01 09:20:44;;;;;;;2.60;0.90;;;11.40;99.90;;;;;;5005339;28;20079;-70
2023/04/01 09:23:54;;;;;;;1.98;0.52;;;11.40;99.90;;;;;;5033806;28;20079;-69
2023/04/01 09:26:48;;;;;;;3.47;0.95;;;11.40;99.90;;;;;;4953941;28;20482;-70
2023/04/01 09:29:32;;;;;;;1.65;0.40;;;11.40;99.90;;;;;;4971667;28;20383;-70
2023/04/01 09:31:58;;;;;;;0.85;0.50;;;11.50;99.90;;;;;;5033044;28;20044;-69
2023/04/01 09:34:37;;;;;;;2.70;0.40;;;11.50;99.90;;;;;;5035500;28;20045;-70
2023/04/01 09:37:15;;;;;;;2.60;0.70;;;11.50;99.90;;;;;;4982989;28;20414;-70
2023/04/01 09:40:10;;;;;;;1.77;0.43;;;11.50;99.90;;;;;;4995908;28;20125;-70
2023/04/01 09:42:51;;;;;;;2.65;0.82;;;11.60;99.90;;;;;;5005689;28;20950;-70
2023/04/01 09:45:42;;;;;;;3.85;1.30;;;11.70;99.90;;;;;;5020304;28;20053;-70
2023/04/01 09:48:11;;;;;;;6.90;3.35;;;11.70;99.90;;;;;;4968688;28;20127;-70
2023/04/01 09:50:52;;;;;;;3.53;1.20;;;11.80;99.90;;;;;;5006072;28;20132;-70
2023/04/01 09:53:47;;;;;;;5.38;1.77;;;11.80;99.90;;;;;;5012647;28;20518;-70
2023/04/01 09:56:51;;;;;;;2.33;0.57;;;11.90;99.90;;;;;;4976997;28;20045;-69
2023/04/01 09:59:42;;;;;;;0.93;0.40;;;11.90;99.90;;;;;;4962460;28;20122;-69
2023/04/01 10:02:20;;;;;;;0.70;0.30;;;12.00;99.90;;;;;;5012794;28;20049;-69
2023/04/01 10:05:04;;;;;;;1.73;0.30;;;12.10;99.90;;;;;;4995877;28;20379;-69
2023/04/01 10:07:39;;;;;;;4.03;0.60;;;12.20;99.90;;;;;;5001937;28;20046;-69
2023/04/01 10:10:34;;;;;;;1.77;0.55;;;12.30;99.90;;;;;;5019243;28;20053;-70
2023/04/01 10:13:37;;;;;;;1.33;0.40;;;12.40;99.90;;;;;;5010536;28;20175;-69
2023/04/01 10:16:21;;;;;;;0.47;0.28;;;12.40;99.90;;;;;;5010226;28;20115;-71
2023/04/01 10:19:06;;;;;;;1.60;0.52;;;12.40;99.90;;;;;;5007995;28;20223;-70
2023/04/01 10:22:07;;;;;;;1.58;0.32;;;12.50;99.90;;;;;;5019118;28;20037;-71
2023/04/01 10:24:54;;;;;;;1.60;0.47;;;12.40;99.90;;;;;;4970777;28;20055;-69
2023/04/01 10:27:31;;;;;;;2.40;0.40;;;12.50;99.90;;;;;;5009392;28;20347;-69
2023/04/01 10:30:06;;;;;;;1.58;0.50;;;12.50;99.90;;;;;;5012780;28;20045;-70
2023/04/01 10:33:20;;;;;;;1.83;0.50;;;12.50;99.90;;;;;;5030085;28;20045;-73
2023/04/01 10:36:08;;;;;;;1.10;0.40;;;12.60;99.90;;;;;;4998114;28;20095;-72
2023/04/01 10:39:03;;;;;;;0.82;0.35;;;12.60;99.90;;;;;;5026142;28;20034;-72
2023/04/01 10:42:10;;;;;;;2.10;0.45;;;12.60;99.90;;;;;;5007137;28;20049;-72
2023/04/01 10:44:45;;;;;;;0.93;0.35;;;12.60;99.90;;;;;;5011210;28;20118;-70
2023/04/01 10:47:35;;;;;;;2.97;1.08;;;12.60;99.90;;;;;;5025225;28;20041;-73
2023/04/01 10:50:19;;;;;;;5.15;1.10;;;12.60;99.90;;;;;;5008859;28;20433;-73
2023/04/01 10:52:57;;;;;;;1.70;0.80;;;12.40;99.90;;;;;;5013214;28;20049;-75
2023/04/01 10:55:40;;;;;;;2.17;0.90;;;12.40;99.90;;;;;;5009097;28;20045;-74
2023/04/01 10:58:37;;;;;;;3.00;0.98;;;12.40;99.90;;;;;;5007259;28;20439;-74
2023/04/01 11:01:39;;;;;;;2.60;1.02;;;12.40;99.90;;;;;;5010788;28;20049;-74
2023/04/01 11:04:20;;;;;;;2.05;0.73;;;12.40;99.90;;;;;;5003830;28;20050;-74
2023/04/01 11:07:17;;;;;;;1.25;0.65;;;12.40;99.90;;;;;;5014326;28;20042;-75
2023/04/01 11:10:26;;;;;;;1.80;0.60;;;12.40;99.90;;;;;;5002413;28;20072;-75
2023/04/01 11:13:17;;;;;;;3.08;0.60;;;12.40;99.90;;;;;;5004615;28;20057;-75
2023/04/01 11:16:27;;;;;;;1.75;0.60;;;12.40;99.90;;;;;;5009072;28;20361;-75
2023/04/01 11:19:12;;;;;;;3.60;0.90;;;12.40;99.90;;;;;;4999060;28;20045;-75
2023/04/01 11:22:02;;;;;;;1.40;0.82;;;12.40;99.90;;;;;;5014355;28;20041;-76
2023/04/01 11:24:43;;;;;;;0.40;0.40;;;12.40;99.90;;;;;;4989787;28;20779;-75
2023/04/01 11:27:37;;;;;;;2.20;0.60;;;12.40;99.90;;;;;;4996401;28;20367;-74
2023/04/01 11:30:31;;;;;;;1.13;0.30;;;12.40;99.90;;;;;;5014637;28;20041;-74
2023/04/01 11:33:21;;;;;;;0.85;0.43;;;12.30;99.90;;;;;;5000875;28;20056;-74
2023/04/01 11:35:55;;;;;;;1.15;0.40;;;12.30;99.90;;;;;;5016233;28;20110;-74
2023/04/01 11:38:43;;;;;;;1.40;0.35;;;12.20;99.90;;;;;;4994238;28;20056;-74
2023/04/01 11:41:34;;;;;;;1.33;0.40;;;12.30;99.90;;;;;;5027188;28;20049;-74
2023/04/01 11:44:22;;;;;;;2.45;0.80;;;12.30;99.90;;;;;;5004534;28;20046;-74
2023/04/01 11:47:17;;;;;;;2.45;0.80;;;12.30;99.90;;;;;;4986232;28;20094;-74
2023/04/01 11:49:52;;;;;;;1.02;0.50;;;12.40;99.90;;;;;;5006254;28;20128;-74
2023/04/01 11:52:52;;;;;;;2.72;0.70;;;12.40;99.90;;;;;;5011321;28;20049;-73
2023/04/01 11:55:46;;;;;;;2.72;0.40;;;12.40;99.90;;;;;;5026629;28;20041;-75
2023/04/01 11:58:31;;;;;;;1.50;0.77;;;12.40;99.90;;;;;;4979518;28;20045;-74
2023/04/01 12:01:24;;;;;;;1.15;0.43;;;12.40;99.90;;;;;;5019751;28;20480;-75
2023/04/01 12:04:03;;;;;;;1.48;0.50;;;12.40;99.90;;;;;;5000814;28;20045;-75
2023/04/01 12:06:47;;;;;;;;;;;12.40;99.90;;;;;;4998796;28;20076;-75
2023/04/01 12:09:37;;;;;;;1.02;0.30;;;12.40;99.90;;;;;;5001399;28;19919;-75
2023/04/01 12:12:28;;;;;;;2.55;1.00;;;12.40;99.90;;;;;;4994458;28;20076;-74
2023/04/01 12:15:28;;;;;;;3.53;1.10;;;12.40;99.90;;;;;;5022377;28;20048;-74
2023/04/01 12:18:25;;;;;;;3.08;1.10;;;12.50;99.90;;;;;;5013944;28;20037;-74
2023/04/01 12:21:08;;;;;;;2.50;1.02;;;12.50;99.90;;;;;;4994062;28;20045;-72
2023/04/01 12:23:42;;;;;;;2.22;1.05;;;12.60;99.90;;;;;;4980288;28;20041;-71
2023/04/01 12:26:29;;;;;;;2.30;1.20;;;12.70;99.90;;;;;;4998375;28;20041;-70
2023/04/01 12:29:21;;;;;;;2.43;1.20;;;12.70;99.90;;;;;;5000297;28;20049;-71
2023/04/01 12:32:24;;;;;;;2.13;0.70;;;12.70;99.90;;;;;;5004510;28;20365;-71
2023/04/01 12:35:20;;;;;;;1.73;0.63;;;12.70;99.90;;;;;;5006984;28;20045;-71
2023/04/01 12:38:07;;;;;;;1.92;0.60;;;12.60;99.90;;;;;;5012845;28;20320;-71
2023/04/01 12:40:45;;;;;;;1.83;0.52;;;12.60;99.90;;;;;;5009974;28;20460;-71
2023/04/01 12:43:33;;;;;;;1.25;0.60;;;12.60;99.90;;;;;;4981299;28;20068;-71
2023/04/01 12:46:05;;;;;;;1.70;0.60;;;12.60;99.90;;;;;;5013070;28;20049;-71
2023/04/01 12:48:37;;;;;;;1.75;0.70;;;12.60;99.90;;;;;;5007880;28;20057;-71
2023/04/01 12:51:11;;;;;;;1.70;0.70;;;12.60;99.90;;;;;;4993173;28;20092;-71
2023/04/01 12:54:12;;;;;;;3.20;1.20;;;12.60;99.90;;;;;;4981288;28;20049;-71
2023/04/01 12:57:09;;;;;;;2.47;0.73;;;12.60;99.90;;;;;;4934497;29;20047;-71
2023/04/01 12:59:46;;;;;;;2.03;0.80;;;12.60;99.90;;;;;;5002505;28;20045;-71
2023/04/01 13:02:46;;;;;;;2.08;0.68;;;12.50;99.90;;;;;;5013309;28;20408;-71
2023/04/01 13:05:23;;;;;;;3.20;0.80;;;12.50;99.90;;;;;;5001245;28;20038;-71
2023/04/01 13:08:09;;;;;;;2.85;0.80;;;12.40;99.90;;;;;;5032295;28;20045;-71
2023/04/01 13:10:50;;;;;;;3.88;1.25;;;12.40;99.90;;;;;;5014422;28;20041;-71
2023/04/01 13:13:22;;;;;;;2.13;1.10;;;12.40;99.90;;;;;;5016076;28;20053;-71
2023/04/01 13:16:13;;;;;;;3.40;1.10;;;12.40;99.90;;;;;;4994475;28;20060;-71
2023/04/01 13:18:54;;;;;;;4.50;1.67;;;12.30;99.90;;;;;;5016998;28;20478;-71
2023/04/01 13:21:51;;;;;;;3.97;1.52;;;12.30;99.90;;;;;;4999922;28;20076;-71
2023/04/01 13:24:29;;;;;;;3.65;1.20;;;12.40;99.90;;;;;;5017099;28;20133;-71
2023/04/01 13:26:58;;;;;;;1.80;0.80;;;12.40;99.90;;;;;;5024813;28;20037;-71
2023/04/01 13:29:25;;;;;;;;;;;12.20;99.90;;;;;;5033571;28;20052;-71
2023/04/01 13:32:06;;;;;;;1.27;0.93;;;12.30;99.90;;;;;;4980415;28;19925;-71
2023/04/01 13:34:34;;;;;;;2.13;0.80;;;12.20;99.90;;;;;;4994985;28;20037;-71
2023/04/01 13:37:26;;;;;;;6.50;1.27;;;12.10;99.90;;;;;;5014611;28;20050;-71